sensor_id;sensor_type;location;lat;lon;timestamp;P1;durP1;ratioP1;P2;durP2;ratioP2
16642;SDS011;8435;52.184;5.406;2023-02-28T00:01:08;3.67;;;3.33;;
16642;SDS011;8435;52.184;5.406;2023-02-28T00:03:38;4.03;;;2.53;;
16642;SDS011;8435;52.184;5.406;2023-02-28T00:06:06;4.17;;;2.73;;
16642;SDS011;8435;52.184;5.406;2023-02-28T00:08:34;2.80;;;2.60;;
16642;SDS011;8435;52.184;5.406;2023-02-28T00:11:03;3.87;;;2.90;;
16642;SDS011;8435;52.184;5.406;2023-02-28T00:13:31;5.17;;;2.80;;
16642;SDS011;8435;52.184;5.406;2023-02-28T00:16:04;3.23;;;2.80;;
16642;SDS011;8435;52.184;5.406;2023-02-28T00:18:33;6.53;;;2.80;;
16642;SDS011;8435;52.184;5.406;2023-02-28T00:21:00;4.57;;;3.03;;
16642;SDS011;8435;52.184;5.406;2023-02-28T00:23:27;4.93;;;2.90;;
16642;SDS011;8435;52.184;5.406;2023-02-28T00:25:54;7.07;;;2.67;;
16642;SDS011;8435;52.184;5.406;2023-02-28T00:28:23;5.77;;;2.70;;
16642;SDS011;8435;52.184;5.406;2023-02-28T00:30:50;4.43;;;3.00;;
16642;SDS011;8435;52.184;5.406;2023-02-28T00:33:17;6.90;;;3.17;;
16642;SDS011;8435;52.184;5.406;2023-02-28T00:35:44;4.37;;;2.87;;
16642;SDS011;8435;52.184;5.406;2023-02-28T00:38:11;3.80;;;2.50;;
16642;SDS011;8435;52.184;5.406;2023-02-28T00:40:38;5.17;;;3.20;;
16642;SDS011;8435;52.184;5.406;2023-02-28T00:43:08;5.97;;;3.33;;
16642;SDS011;8435;52.184;5.406;2023-02-28T00:45:36;6.10;;;3.20;;
16642;SDS011;8435;52.184;5.406;2023-02-28T00:48:05;5.17;;;3.00;;
16642;SDS011;8435;52.184;5.406;2023-02-28T00:50:32;4.03;;;3.20;;
16642;SDS011;8435;52.184;5.406;2023-02-28T00:53:01;5.30;;;3.60;;
16642;SDS011;8435;52.184;5.406;2023-02-28T00:55:27;3.93;;;2.77;;
16642;SDS011;8435;52.184;5.406;2023-02-28T00:57:54;6.60;;;3.90;;
16642;SDS011;8435;52.184;5.406;2023-02-28T01:00:21;4.57;;;3.03;;
16642;SDS011;8435;52.184;5.406;2023-02-28T01:02:49;4.93;;;3.10;;
16642;SDS011;8435;52.184;5.406;2023-02-28T01:05:18;5.03;;;3.20;;
16642;SDS011;8435;52.184;5.406;2023-02-28T01:07:44;9.00;;;6.70;;
16642;SDS011;8435;52.184;5.406;2023-02-28T01:10:11;8.90;;;6.53;;
16642;SDS011;8435;52.184;5.406;2023-02-28T01:12:38;6.47;;;3.60;;
16642;SDS011;8435;52.184;5.406;2023-02-28T01:15:05;5.77;;;3.40;;
16642;SDS011;8435;52.184;5.406;2023-02-28T01:17:33;5.63;;;3.17;;
16642;SDS011;8435;52.184;5.406;2023-02-28T01:20:01;4.23;;;2.70;;
16642;SDS011;8435;52.184;5.406;2023-02-28T01:22:28;4.17;;;2.90;;
16642;SDS011;8435;52.184;5.406;2023-02-28T01:24:55;3.00;;;2.53;;
16642;SDS011;8435;52.184;5.406;2023-02-28T01:27:22;3.27;;;2.80;;
16642;SDS011;8435;52.184;5.406;2023-02-28T01:29:50;4.33;;;2.60;;
16642;SDS011;8435;52.184;5.406;2023-02-28T01:32:17;5.47;;;2.83;;
16642;SDS011;8435;52.184;5.406;2023-02-28T01:34:44;4.87;;;2.40;;
16642;SDS011;8435;52.184;5.406;2023-02-28T01:37:14;4.70;;;2.67;;
16642;SDS011;8435;52.184;5.406;2023-02-28T01:39:44;3.77;;;2.77;;
16642;SDS011;8435;52.184;5.406;2023-02-28T01:42:10;4.17;;;2.77;;
16642;SDS011;8435;52.184;5.406;2023-02-28T01:45:01;5.37;;;2.80;;
16642;SDS011;8435;52.184;5.406;2023-02-28T01:47:32;3.97;;;2.50;;
16642;SDS011;8435;52.184;5.406;2023-02-28T01:50:03;3.33;;;2.50;;
16642;SDS011;8435;52.184;5.406;2023-02-28T01:52:34;4.80;;;2.90;;
16642;SDS011;8435;52.184;5.406;2023-02-28T01:55:05;3.30;;;2.50;;
16642;SDS011;8435;52.184;5.406;2023-02-28T01:57:35;4.03;;;3.07;;
16642;SDS011;8435;52.184;5.406;2023-02-28T02:00:06;4.07;;;2.67;;
16642;SDS011;8435;52.184;5.406;2023-02-28T02:02:35;4.33;;;2.77;;
16642;SDS011;8435;52.184;5.406;2023-02-28T02:05:04;6.93;;;2.70;;
16642;SDS011;8435;52.184;5.406;2023-02-28T02:07:35;4.60;;;2.60;;
16642;SDS011;8435;52.184;5.406;2023-02-28T02:10:05;5.03;;;3.17;;
16642;SDS011;8435;52.184;5.406;2023-02-28T02:12:41;4.10;;;2.80;;
16642;SDS011;8435;52.184;5.406;2023-02-28T02:15:30;5.30;;;2.83;;
16642;SDS011;8435;52.184;5.406;2023-02-28T02:18:03;6.53;;;2.60;;
16642;SDS011;8435;52.184;5.406;2023-02-28T02:23:40;4.57;;;2.80;;
16642;SDS011;8435;52.184;5.406;2023-02-28T02:26:43;3.50;;;2.30;;
16642;SDS011;8435;52.184;5.406;2023-02-28T02:35:12;3.60;;;2.50;;
16642;SDS011;8435;52.184;5.406;2023-02-28T02:37:42;2.70;;;2.43;;
16642;SDS011;8435;52.184;5.406;2023-02-28T02:40:15;2.73;;;2.53;;
16642;SDS011;8435;52.184;5.406;2023-02-28T02:42:47;2.47;;;2.20;;
16642;SDS011;8435;52.184;5.406;2023-02-28T02:45:23;2.50;;;2.30;;
16642;SDS011;8435;52.184;5.406;2023-02-28T02:47:54;4.47;;;2.37;;
16642;SDS011;8435;52.184;5.406;2023-02-28T02:50:28;4.20;;;2.20;;
16642;SDS011;8435;52.184;5.406;2023-02-28T02:53:00;3.53;;;1.83;;
16642;SDS011;8435;52.184;5.406;2023-02-28T02:55:29;3.00;;;2.17;;
16642;SDS011;8435;52.184;5.406;2023-02-28T02:58:01;2.73;;;2.10;;
16642;SDS011;8435;52.184;5.406;2023-02-28T03:00:31;2.10;;;1.90;;
16642;SDS011;8435;52.184;5.406;2023-02-28T03:03:02;2.93;;;2.40;;
16642;SDS011;8435;52.184;5.406;2023-02-28T03:05:32;4.33;;;2.23;;
16642;SDS011;8435;52.184;5.406;2023-02-28T03:08:05;2.63;;;2.33;;
16642;SDS011;8435;52.184;5.406;2023-02-28T03:10:34;2.63;;;2.30;;
16642;SDS011;8435;52.184;5.406;2023-02-28T03:13:14;4.73;;;2.70;;
16642;SDS011;8435;52.184;5.406;2023-02-28T03:16:27;3.60;;;2.60;;
16642;SDS011;8435;52.184;5.406;2023-02-28T03:19:02;3.47;;;2.77;;
16642;SDS011;8435;52.184;5.406;2023-02-28T03:21:44;2.80;;;2.50;;
16642;SDS011;8435;52.184;5.406;2023-02-28T03:24:16;3.80;;;2.47;;
16642;SDS011;8435;52.184;5.406;2023-02-28T03:26:52;4.10;;;2.53;;
16642;SDS011;8435;52.184;5.406;2023-02-28T03:29:27;3.47;;;2.53;;
16642;SDS011;8435;52.184;5.406;2023-02-28T03:31:59;3.10;;;2.40;;
16642;SDS011;8435;52.184;5.406;2023-02-28T03:34:31;2.90;;;2.50;;
16642;SDS011;8435;52.184;5.406;2023-02-28T03:37:02;5.37;;;3.20;;
16642;SDS011;8435;52.184;5.406;2023-02-28T03:39:34;5.67;;;2.90;;
16642;SDS011;8435;52.184;5.406;2023-02-28T03:42:04;6.47;;;3.17;;
16642;SDS011;8435;52.184;5.406;2023-02-28T03:44:36;6.07;;;2.93;;
16642;SDS011;8435;52.184;5.406;2023-02-28T03:47:08;7.87;;;3.57;;
16642;SDS011;8435;52.184;5.406;2023-02-28T03:49:39;4.57;;;3.07;;
16642;SDS011;8435;52.184;5.406;2023-02-28T03:52:10;4.93;;;3.13;;
16642;SDS011;8435;52.184;5.406;2023-02-28T03:54:39;4.63;;;3.07;;
16642;SDS011;8435;52.184;5.406;2023-02-28T03:57:10;4.47;;;3.07;;
16642;SDS011;8435;52.184;5.406;2023-02-28T03:59:45;5.47;;;3.50;;
16642;SDS011;8435;52.184;5.406;2023-02-28T04:02:16;5.13;;;3.20;;
16642;SDS011;8435;52.184;5.406;2023-02-28T04:04:43;4.40;;;2.83;;
16642;SDS011;8435;52.184;5.406;2023-02-28T04:07:14;3.67;;;3.03;;
16642;SDS011;8435;52.184;5.406;2023-02-28T04:09:42;3.40;;;3.10;;
16642;SDS011;8435;52.184;5.406;2023-02-28T04:12:09;4.10;;;3.43;;
16642;SDS011;8435;52.184;5.406;2023-02-28T04:14:36;5.77;;;3.40;;
16642;SDS011;8435;52.184;5.406;2023-02-28T04:17:02;3.97;;;3.10;;
16642;SDS011;8435;52.184;5.406;2023-02-28T04:19:29;3.67;;;3.00;;
16642;SDS011;8435;52.184;5.406;2023-02-28T04:21:56;3.20;;;2.63;;
16642;SDS011;8435;52.184;5.406;2023-02-28T04:24:25;3.53;;;3.10;;
16642;SDS011;8435;52.184;5.406;2023-02-28T04:26:54;5.23;;;3.60;;
16642;SDS011;8435;52.184;5.406;2023-02-28T04:29:23;3.27;;;2.90;;
16642;SDS011;8435;52.184;5.406;2023-02-28T04:31:51;4.43;;;3.33;;
16642;SDS011;8435;52.184;5.406;2023-02-28T04:34:18;6.23;;;2.83;;
16642;SDS011;8435;52.184;5.406;2023-02-28T04:36:46;3.93;;;3.07;;
16642;SDS011;8435;52.184;5.406;2023-02-28T04:39:14;3.17;;;2.83;;
16642;SDS011;8435;52.184;5.406;2023-02-28T04:41:44;4.50;;;3.20;;
16642;SDS011;8435;52.184;5.406;2023-02-28T04:44:11;2.47;;;2.27;;
16642;SDS011;8435;52.184;5.406;2023-02-28T04:46:38;2.60;;;2.33;;
16642;SDS011;8435;52.184;5.406;2023-02-28T04:49:05;2.73;;;2.47;;
16642;SDS011;8435;52.184;5.406;2023-02-28T04:51:32;3.33;;;2.47;;
16642;SDS011;8435;52.184;5.406;2023-02-28T04:53:58;2.37;;;2.10;;
16642;SDS011;8435;52.184;5.406;2023-02-28T04:56:25;2.67;;;2.47;;
16642;SDS011;8435;52.184;5.406;2023-02-28T04:58:53;3.30;;;2.10;;
16642;SDS011;8435;52.184;5.406;2023-02-28T05:01:22;2.40;;;2.03;;
16642;SDS011;8435;52.184;5.406;2023-02-28T05:03:52;2.77;;;2.00;;
16642;SDS011;8435;52.184;5.406;2023-02-28T05:06:20;1.77;;;1.63;;
16642;SDS011;8435;52.184;5.406;2023-02-28T05:08:48;2.10;;;1.90;;
16642;SDS011;8435;52.184;5.406;2023-02-28T05:11:17;2.10;;;1.90;;
16642;SDS011;8435;52.184;5.406;2023-02-28T05:13:46;2.07;;;1.80;;
16642;SDS011;8435;52.184;5.406;2023-02-28T05:16:18;2.50;;;2.10;;
16642;SDS011;8435;52.184;5.406;2023-02-28T05:18:45;2.43;;;2.07;;
16642;SDS011;8435;52.184;5.406;2023-02-28T05:21:21;2.40;;;2.20;;
16642;SDS011;8435;52.184;5.406;2023-02-28T05:23:54;2.23;;;2.03;;
16642;SDS011;8435;52.184;5.406;2023-02-28T05:26:21;2.23;;;2.03;;
16642;SDS011;8435;52.184;5.406;2023-02-28T05:28:48;2.73;;;2.23;;
16642;SDS011;8435;52.184;5.406;2023-02-28T05:31:15;2.87;;;2.30;;
16642;SDS011;8435;52.184;5.406;2023-02-28T05:33:44;3.00;;;2.37;;
16642;SDS011;8435;52.184;5.406;2023-02-28T05:36:11;2.53;;;2.33;;
16642;SDS011;8435;52.184;5.406;2023-02-28T05:38:38;3.40;;;2.43;;
16642;SDS011;8435;52.184;5.406;2023-02-28T05:41:05;3.60;;;2.23;;
16642;SDS011;8435;52.184;5.406;2023-02-28T05:43:33;2.87;;;2.17;;
16642;SDS011;8435;52.184;5.406;2023-02-28T05:46:01;2.10;;;2.00;;
16642;SDS011;8435;52.184;5.406;2023-02-28T05:48:30;3.23;;;2.20;;
16642;SDS011;8435;52.184;5.406;2023-02-28T05:51:01;2.30;;;2.10;;
16642;SDS011;8435;52.184;5.406;2023-02-28T05:53:28;3.13;;;2.77;;
16642;SDS011;8435;52.184;5.406;2023-02-28T05:55:56;2.50;;;2.30;;
16642;SDS011;8435;52.184;5.406;2023-02-28T05:58:23;2.87;;;2.67;;
16642;SDS011;8435;52.184;5.406;2023-02-28T06:00:54;2.83;;;2.63;;
16642;SDS011;8435;52.184;5.406;2023-02-28T06:03:21;2.60;;;2.40;;
16642;SDS011;8435;52.184;5.406;2023-02-28T06:05:48;2.90;;;2.50;;
16642;SDS011;8435;52.184;5.406;2023-02-28T06:08:16;2.47;;;2.27;;
16642;SDS011;8435;52.184;5.406;2023-02-28T06:10:43;2.77;;;2.57;;
16642;SDS011;8435;52.184;5.406;2023-02-28T06:13:10;3.47;;;2.53;;
16642;SDS011;8435;52.184;5.406;2023-02-28T06:15:37;2.83;;;2.63;;
16642;SDS011;8435;52.184;5.406;2023-02-28T06:18:04;2.57;;;2.37;;
16642;SDS011;8435;52.184;5.406;2023-02-28T06:20:33;3.57;;;2.27;;
16642;SDS011;8435;52.184;5.406;2023-02-28T06:23:01;3.07;;;2.77;;
16642;SDS011;8435;52.184;5.406;2023-02-28T06:25:32;5.17;;;2.60;;
16642;SDS011;8435;52.184;5.406;2023-02-28T06:27:58;2.40;;;2.20;;
16642;SDS011;8435;52.184;5.406;2023-02-28T06:30:25;2.77;;;2.47;;
16642;SDS011;8435;52.184;5.406;2023-02-28T06:32:56;3.50;;;2.80;;
16642;SDS011;8435;52.184;5.406;2023-02-28T06:35:22;2.93;;;2.60;;
16642;SDS011;8435;52.184;5.406;2023-02-28T06:37:49;2.83;;;2.57;;
16642;SDS011;8435;52.184;5.406;2023-02-28T06:40:16;6.13;;;5.20;;
16642;SDS011;8435;52.184;5.406;2023-02-28T06:42:44;3.20;;;2.70;;
16642;SDS011;8435;52.184;5.406;2023-02-28T06:45:11;2.63;;;2.43;;
16642;SDS011;8435;52.184;5.406;2023-02-28T06:47:38;2.93;;;2.73;;
16642;SDS011;8435;52.184;5.406;2023-02-28T06:50:07;3.13;;;2.83;;
16642;SDS011;8435;52.184;5.406;2023-02-28T06:52:36;4.23;;;3.37;;
16642;SDS011;8435;52.184;5.406;2023-02-28T06:55:03;3.67;;;3.30;;
16642;SDS011;8435;52.184;5.406;2023-02-28T06:57:32;2.83;;;2.63;;
16642;SDS011;8435;52.184;5.406;2023-02-28T07:00:03;3.50;;;3.13;;
16642;SDS011;8435;52.184;5.406;2023-02-28T07:02:32;3.70;;;2.90;;
16642;SDS011;8435;52.184;5.406;2023-02-28T07:04:59;4.33;;;3.20;;
16642;SDS011;8435;52.184;5.406;2023-02-28T07:07:29;3.07;;;2.83;;
16642;SDS011;8435;52.184;5.406;2023-02-28T07:09:56;3.40;;;3.10;;
16642;SDS011;8435;52.184;5.406;2023-02-28T07:12:22;4.13;;;2.93;;
16642;SDS011;8435;52.184;5.406;2023-02-28T07:14:52;4.00;;;2.53;;
16642;SDS011;8435;52.184;5.406;2023-02-28T07:17:20;3.43;;;3.10;;
16642;SDS011;8435;52.184;5.406;2023-02-28T07:19:48;3.40;;;3.10;;
16642;SDS011;8435;52.184;5.406;2023-02-28T07:22:15;3.60;;;3.13;;
16642;SDS011;8435;52.184;5.406;2023-02-28T07:24:42;3.40;;;2.70;;
16642;SDS011;8435;52.184;5.406;2023-02-28T07:27:09;3.60;;;3.30;;
16642;SDS011;8435;52.184;5.406;2023-02-28T07:29:51;3.17;;;2.87;;
16642;SDS011;8435;52.184;5.406;2023-02-28T07:32:21;2.90;;;2.70;;
16642;SDS011;8435;52.184;5.406;2023-02-28T07:34:47;3.73;;;2.77;;
16642;SDS011;8435;52.184;5.406;2023-02-28T07:37:14;3.23;;;2.93;;
16642;SDS011;8435;52.184;5.406;2023-02-28T07:39:41;3.93;;;3.17;;
16642;SDS011;8435;52.184;5.406;2023-02-28T07:42:08;4.53;;;3.30;;
16642;SDS011;8435;52.184;5.406;2023-02-28T07:44:37;4.07;;;3.67;;
16642;SDS011;8435;52.184;5.406;2023-02-28T07:47:05;4.33;;;3.93;;
16642;SDS011;8435;52.184;5.406;2023-02-28T07:49:34;4.63;;;4.20;;
16642;SDS011;8435;52.184;5.406;2023-02-28T07:52:02;4.00;;;3.40;;
16642;SDS011;8435;52.184;5.406;2023-02-28T07:54:30;3.53;;;3.17;;
16642;SDS011;8435;52.184;5.406;2023-02-28T07:56:57;4.47;;;3.43;;
16642;SDS011;8435;52.184;5.406;2023-02-28T07:59:24;3.60;;;3.10;;
16642;SDS011;8435;52.184;5.406;2023-02-28T08:01:51;5.30;;;3.20;;
16642;SDS011;8435;52.184;5.406;2023-02-28T08:04:17;3.67;;;3.37;;
16642;SDS011;8435;52.184;5.406;2023-02-28T08:06:49;3.00;;;2.80;;
16642;SDS011;8435;52.184;5.406;2023-02-28T08:09:18;3.43;;;3.20;;
16642;SDS011;8435;52.184;5.406;2023-02-28T08:11:44;3.23;;;2.93;;
16642;SDS011;8435;52.184;5.406;2023-02-28T08:14:11;3.50;;;2.97;;
16642;SDS011;8435;52.184;5.406;2023-02-28T08:16:38;3.73;;;3.27;;
16642;SDS011;8435;52.184;5.406;2023-02-28T08:19:05;3.50;;;3.13;;
16642;SDS011;8435;52.184;5.406;2023-02-28T08:21:32;5.10;;;3.80;;
16642;SDS011;8435;52.184;5.406;2023-02-28T08:24:00;3.70;;;3.40;;
16642;SDS011;8435;52.184;5.406;2023-02-28T08:26:28;4.80;;;3.60;;
16642;SDS011;8435;52.184;5.406;2023-02-28T08:28:55;3.83;;;3.30;;
16642;SDS011;8435;52.184;5.406;2023-02-28T08:31:22;3.87;;;3.57;;
16642;SDS011;8435;52.184;5.406;2023-02-28T08:33:49;4.10;;;3.80;;
16642;SDS011;8435;52.184;5.406;2023-02-28T08:36:18;4.50;;;3.47;;
16642;SDS011;8435;52.184;5.406;2023-02-28T08:38:45;6.00;;;3.70;;
16642;SDS011;8435;52.184;5.406;2023-02-28T08:41:13;4.40;;;3.20;;
16642;SDS011;8435;52.184;5.406;2023-02-28T08:43:41;3.97;;;3.13;;
16642;SDS011;8435;52.184;5.406;2023-02-28T08:46:12;3.57;;;3.00;;
16642;SDS011;8435;52.184;5.406;2023-02-28T08:48:39;3.73;;;3.40;;
16642;SDS011;8435;52.184;5.406;2023-02-28T08:51:07;4.53;;;3.57;;
16642;SDS011;8435;52.184;5.406;2023-02-28T08:53:35;4.60;;;3.07;;
16642;SDS011;8435;52.184;5.406;2023-02-28T08:56:02;3.83;;;3.10;;
16642;SDS011;8435;52.184;5.406;2023-02-28T08:58:32;3.53;;;3.23;;
16642;SDS011;8435;52.184;5.406;2023-02-28T09:01:00;3.70;;;3.40;;
16642;SDS011;8435;52.184;5.406;2023-02-28T09:03:33;2.90;;;2.70;;
16642;SDS011;8435;52.184;5.406;2023-02-28T09:06:00;3.27;;;2.97;;
16642;SDS011;8435;52.184;5.406;2023-02-28T09:08:27;3.47;;;3.13;;
16642;SDS011;8435;52.184;5.406;2023-02-28T09:10:56;3.20;;;2.90;;
16642;SDS011;8435;52.184;5.406;2023-02-28T09:13:24;2.63;;;2.43;;
16642;SDS011;8435;52.184;5.406;2023-02-28T09:15:53;3.27;;;2.93;;
16642;SDS011;8435;52.184;5.406;2023-02-28T09:18:20;4.63;;;2.97;;
16642;SDS011;8435;52.184;5.406;2023-02-28T09:20:47;4.80;;;3.30;;
16642;SDS011;8435;52.184;5.406;2023-02-28T09:23:15;4.40;;;2.90;;
16642;SDS011;8435;52.184;5.406;2023-02-28T09:25:45;6.00;;;2.30;;
16642;SDS011;8435;52.184;5.406;2023-02-28T09:28:13;2.77;;;2.20;;
16642;SDS011;8435;52.184;5.406;2023-02-28T09:30:41;2.27;;;2.07;;
16642;SDS011;8435;52.184;5.406;2023-02-28T09:33:12;2.07;;;1.90;;
16642;SDS011;8435;52.184;5.406;2023-02-28T09:35:42;2.90;;;2.27;;
16642;SDS011;8435;52.184;5.406;2023-02-28T09:38:09;2.10;;;1.67;;
16642;SDS011;8435;52.184;5.406;2023-02-28T09:40:37;2.17;;;1.77;;
16642;SDS011;8435;52.184;5.406;2023-02-28T09:43:15;1.77;;;1.67;;
16642;SDS011;8435;52.184;5.406;2023-02-28T09:45:46;2.03;;;1.70;;
16642;SDS011;8435;52.184;5.406;2023-02-28T09:48:20;2.33;;;1.27;;
16642;SDS011;8435;52.184;5.406;2023-02-28T09:50:51;2.83;;;1.37;;
16642;SDS011;8435;52.184;5.406;2023-02-28T09:53:26;2.30;;;1.73;;
16642;SDS011;8435;52.184;5.406;2023-02-28T09:55:59;2.40;;;1.27;;
16642;SDS011;8435;52.184;5.406;2023-02-28T09:58:30;1.30;;;1.20;;
16642;SDS011;8435;52.184;5.406;2023-02-28T10:01:03;4.00;;;1.40;;
16642;SDS011;8435;52.184;5.406;2023-02-28T10:03:39;1.70;;;1.40;;
16642;SDS011;8435;52.184;5.406;2023-02-28T10:06:11;3.70;;;1.90;;
16642;SDS011;8435;52.184;5.406;2023-02-28T10:08:43;1.50;;;1.40;;
16642;SDS011;8435;52.184;5.406;2023-02-28T10:11:20;1.23;;;1.20;;
16642;SDS011;8435;52.184;5.406;2023-02-28T10:13:51;1.47;;;1.37;;
16642;SDS011;8435;52.184;5.406;2023-02-28T10:16:27;1.30;;;1.20;;
16642;SDS011;8435;52.184;5.406;2023-02-28T10:19:02;1.63;;;1.50;;
16642;SDS011;8435;52.184;5.406;2023-02-28T10:21:34;2.10;;;1.90;;
16642;SDS011;8435;52.184;5.406;2023-02-28T10:24:07;1.67;;;1.57;;
16642;SDS011;8435;52.184;5.406;2023-02-28T10:26:49;2.60;;;1.60;;
16642;SDS011;8435;52.184;5.406;2023-02-28T10:29:22;1.53;;;1.43;;
16642;SDS011;8435;52.184;5.406;2023-02-28T10:31:48;2.50;;;1.43;;
16642;SDS011;8435;52.184;5.406;2023-02-28T10:34:17;1.93;;;1.77;;
16642;SDS011;8435;52.184;5.406;2023-02-28T10:36:44;1.97;;;1.70;;
16642;SDS011;8435;52.184;5.406;2023-02-28T10:42:01;2.13;;;1.40;;
16642;SDS011;8435;52.184;5.406;2023-02-28T10:44:27;1.47;;;1.37;;
16642;SDS011;8435;52.184;5.406;2023-02-28T10:46:54;6.37;;;1.80;;
16642;SDS011;8435;52.184;5.406;2023-02-28T10:49:24;1.70;;;1.60;;
16642;SDS011;8435;52.184;5.406;2023-02-28T10:51:54;1.53;;;1.30;;
16642;SDS011;8435;52.184;5.406;2023-02-28T10:54:23;3.27;;;1.50;;
16642;SDS011;8435;52.184;5.406;2023-02-28T10:57:05;1.60;;;1.50;;
16642;SDS011;8435;52.184;5.406;2023-02-28T10:59:34;1.40;;;1.30;;
16642;SDS011;8435;52.184;5.406;2023-02-28T11:02:01;1.67;;;1.57;;
16642;SDS011;8435;52.184;5.406;2023-02-28T11:04:34;1.60;;;1.50;;
16642;SDS011;8435;52.184;5.406;2023-02-28T11:07:05;1.47;;;1.37;;
16642;SDS011;8435;52.184;5.406;2023-02-28T11:09:44;1.67;;;1.50;;
16642;SDS011;8435;52.184;5.406;2023-02-28T11:12:19;1.60;;;1.50;;
16642;SDS011;8435;52.184;5.406;2023-02-28T11:14:49;1.60;;;1.37;;
16642;SDS011;8435;52.184;5.406;2023-02-28T11:17:20;1.87;;;1.40;;
16642;SDS011;8435;52.184;5.406;2023-02-28T11:19:54;1.77;;;1.63;;
16642;SDS011;8435;52.184;5.406;2023-02-28T11:22:23;2.40;;;1.50;;
16642;SDS011;8435;52.184;5.406;2023-02-28T11:24:54;1.53;;;1.43;;
16642;SDS011;8435;52.184;5.406;2023-02-28T11:27:42;1.37;;;1.27;;
16642;SDS011;8435;52.184;5.406;2023-02-28T11:30:23;2.13;;;1.30;;
16642;SDS011;8435;52.184;5.406;2023-02-28T11:32:55;2.77;;;1.70;;
16642;SDS011;8435;52.184;5.406;2023-02-28T11:35:24;1.70;;;1.43;;
16642;SDS011;8435;52.184;5.406;2023-02-28T11:37:54;1.27;;;1.20;;
16642;SDS011;8435;52.184;5.406;2023-02-28T11:40:23;1.40;;;1.30;;
16642;SDS011;8435;52.184;5.406;2023-02-28T11:43:01;1.70;;;1.60;;
16642;SDS011;8435;52.184;5.406;2023-02-28T11:45:44;1.37;;;1.27;;
16642;SDS011;8435;52.184;5.406;2023-02-28T11:48:22;1.53;;;1.43;;
16642;SDS011;8435;52.184;5.406;2023-02-28T11:51:03;1.63;;;1.50;;
16642;SDS011;8435;52.184;5.406;2023-02-28T11:53:41;3.03;;;1.43;;
16642;SDS011;8435;52.184;5.406;2023-02-28T11:56:29;1.50;;;1.40;;
16642;SDS011;8435;52.184;5.406;2023-02-28T11:59:02;1.37;;;1.27;;
16642;SDS011;8435;52.184;5.406;2023-02-28T12:01:59;2.20;;;1.40;;
16642;SDS011;8435;52.184;5.406;2023-02-28T12:04:34;3.27;;;1.70;;
16642;SDS011;8435;52.184;5.406;2023-02-28T12:07:09;1.80;;;1.70;;
16642;SDS011;8435;52.184;5.406;2023-02-28T12:09:47;2.07;;;1.60;;
16642;SDS011;8435;52.184;5.406;2023-02-28T12:12:27;2.50;;;1.33;;
16642;SDS011;8435;52.184;5.406;2023-02-28T12:15:23;1.40;;;1.30;;
16642;SDS011;8435;52.184;5.406;2023-02-28T12:17:59;1.30;;;1.23;;
16642;SDS011;8435;52.184;5.406;2023-02-28T12:20:38;1.73;;;1.57;;
16642;SDS011;8435;52.184;5.406;2023-02-28T12:23:21;2.00;;;1.37;;
16642;SDS011;8435;52.184;5.406;2023-02-28T12:26:07;1.50;;;1.40;;
16642;SDS011;8435;52.184;5.406;2023-02-28T12:28:41;1.87;;;1.37;;
16642;SDS011;8435;52.184;5.406;2023-02-28T12:31:14;1.60;;;1.30;;
16642;SDS011;8435;52.184;5.406;2023-02-28T12:33:47;1.90;;;1.60;;
16642;SDS011;8435;52.184;5.406;2023-02-28T12:36:18;1.50;;;1.40;;
16642;SDS011;8435;52.184;5.406;2023-02-28T12:38:48;2.37;;;1.47;;
16642;SDS011;8435;52.184;5.406;2023-02-28T12:41:22;2.03;;;1.73;;
16642;SDS011;8435;52.184;5.406;2023-02-28T12:43:55;1.47;;;1.37;;
16642;SDS011;8435;52.184;5.406;2023-02-28T12:46:28;1.30;;;1.20;;
16642;SDS011;8435;52.184;5.406;2023-02-28T12:49:04;1.60;;;1.50;;
16642;SDS011;8435;52.184;5.406;2023-02-28T12:51:32;2.17;;;1.70;;
16642;SDS011;8435;52.184;5.406;2023-02-28T12:54:07;1.17;;;1.17;;
16642;SDS011;8435;52.184;5.406;2023-02-28T12:56:42;1.70;;;1.60;;
16642;SDS011;8435;52.184;5.406;2023-02-28T12:59:15;1.67;;;1.50;;
16642;SDS011;8435;52.184;5.406;2023-02-28T13:02:00;1.53;;;1.40;;
16642;SDS011;8435;52.184;5.406;2023-02-28T13:04:47;2.00;;;1.80;;
16642;SDS011;8435;52.184;5.406;2023-02-28T13:07:33;2.03;;;1.50;;
16642;SDS011;8435;52.184;5.406;2023-02-28T13:10:23;4.13;;;3.23;;
16642;SDS011;8435;52.184;5.406;2023-02-28T13:12:52;2.47;;;2.20;;
16642;SDS011;8435;52.184;5.406;2023-02-28T13:15:22;1.90;;;1.80;;
16642;SDS011;8435;52.184;5.406;2023-02-28T13:17:53;1.93;;;1.83;;
16642;SDS011;8435;52.184;5.406;2023-02-28T13:20:23;1.60;;;1.50;;
16642;SDS011;8435;52.184;5.406;2023-02-28T13:22:52;1.93;;;1.83;;
16642;SDS011;8435;52.184;5.406;2023-02-28T13:34:33;1.80;;;1.70;;
16642;SDS011;8435;52.184;5.406;2023-02-28T13:43:03;1.70;;;1.60;;
16642;SDS011;8435;52.184;5.406;2023-02-28T13:45:35;1.77;;;1.67;;
16642;SDS011;8435;52.184;5.406;2023-02-28T13:48:04;1.80;;;1.70;;
16642;SDS011;8435;52.184;5.406;2023-02-28T13:50:42;1.70;;;1.60;;
16642;SDS011;8435;52.184;5.406;2023-02-28T13:53:21;1.83;;;1.73;;
16642;SDS011;8435;52.184;5.406;2023-02-28T13:56:10;2.93;;;1.70;;
16642;SDS011;8435;52.184;5.406;2023-02-28T13:58:54;1.97;;;1.87;;
16642;SDS011;8435;52.184;5.406;2023-02-28T14:01:36;2.77;;;2.57;;
16642;SDS011;8435;52.184;5.406;2023-02-28T14:07:27;2.10;;;1.70;;
16642;SDS011;8435;52.184;5.406;2023-02-28T14:09:59;2.60;;;2.37;;
16642;SDS011;8435;52.184;5.406;2023-02-28T14:15:27;4.90;;;3.83;;
16642;SDS011;8435;52.184;5.406;2023-02-28T14:20:59;4.37;;;3.93;;
16642;SDS011;8435;52.184;5.406;2023-02-28T14:23:46;2.87;;;2.67;;
16642;SDS011;8435;52.184;5.406;2023-02-28T14:26:33;4.10;;;3.70;;
16642;SDS011;8435;52.184;5.406;2023-02-28T14:29:19;2.97;;;2.57;;
16642;SDS011;8435;52.184;5.406;2023-02-28T14:32:03;3.40;;;3.00;;
16642;SDS011;8435;52.184;5.406;2023-02-28T14:34:41;2.97;;;2.20;;
16642;SDS011;8435;52.184;5.406;2023-02-28T14:37:15;5.17;;;4.50;;
16642;SDS011;8435;52.184;5.406;2023-02-28T14:39:46;3.37;;;3.03;;
16642;SDS011;8435;52.184;5.406;2023-02-28T14:42:27;5.43;;;4.47;;
16642;SDS011;8435;52.184;5.406;2023-02-28T14:44:55;3.03;;;2.73;;
16642;SDS011;8435;52.184;5.406;2023-02-28T14:47:23;2.47;;;1.90;;
16642;SDS011;8435;52.184;5.406;2023-02-28T14:49:54;3.80;;;2.93;;
16642;SDS011;8435;52.184;5.406;2023-02-28T14:52:21;1.87;;;1.77;;
16642;SDS011;8435;52.184;5.406;2023-02-28T14:54:51;1.90;;;1.80;;
16642;SDS011;8435;52.184;5.406;2023-02-28T14:57:21;4.00;;;3.17;;
16642;SDS011;8435;52.184;5.406;2023-02-28T14:59:56;3.83;;;2.97;;
16642;SDS011;8435;52.184;5.406;2023-02-28T15:02:29;3.00;;;2.70;;
16642;SDS011;8435;52.184;5.406;2023-02-28T15:04:57;2.70;;;2.50;;
16642;SDS011;8435;52.184;5.406;2023-02-28T15:07:26;5.07;;;4.13;;
16642;SDS011;8435;52.184;5.406;2023-02-28T15:10:09;4.03;;;3.50;;
16642;SDS011;8435;52.184;5.406;2023-02-28T15:12:41;3.00;;;2.70;;
16642;SDS011;8435;52.184;5.406;2023-02-28T15:15:15;2.10;;;1.90;;
16642;SDS011;8435;52.184;5.406;2023-02-28T15:17:46;2.37;;;2.17;;
16642;SDS011;8435;52.184;5.406;2023-02-28T15:20:16;2.20;;;2.10;;
16642;SDS011;8435;52.184;5.406;2023-02-28T15:22:47;1.90;;;1.80;;
16642;SDS011;8435;52.184;5.406;2023-02-28T15:25:17;1.67;;;1.57;;
16642;SDS011;8435;52.184;5.406;2023-02-28T15:27:47;2.20;;;2.00;;
16642;SDS011;8435;52.184;5.406;2023-02-28T15:30:17;3.10;;;2.80;;
16642;SDS011;8435;52.184;5.406;2023-02-28T15:32:48;2.30;;;2.10;;
16642;SDS011;8435;52.184;5.406;2023-02-28T15:35:32;3.03;;;2.03;;
16642;SDS011;8435;52.184;5.406;2023-02-28T15:38:00;1.77;;;1.67;;
16642;SDS011;8435;52.184;5.406;2023-02-28T15:40:31;2.40;;;1.90;;
16642;SDS011;8435;52.184;5.406;2023-02-28T15:43:03;3.47;;;3.10;;
16642;SDS011;8435;52.184;5.406;2023-02-28T15:45:32;2.80;;;2.60;;
16642;SDS011;8435;52.184;5.406;2023-02-28T15:48:04;2.90;;;2.60;;
16642;SDS011;8435;52.184;5.406;2023-02-28T15:50:34;3.00;;;1.97;;
16642;SDS011;8435;52.184;5.406;2023-02-28T15:53:01;2.00;;;1.70;;
16642;SDS011;8435;52.184;5.406;2023-02-28T15:55:38;2.03;;;1.73;;
16642;SDS011;8435;52.184;5.406;2023-02-28T15:58:07;2.20;;;1.73;;
16642;SDS011;8435;52.184;5.406;2023-02-28T16:00:38;2.13;;;1.70;;